Terminal Aerodrome Forecast
Issued by NWS

Current Version | Previous Version | Graphics & Text | Print | Product List | Glossary On
Versions: 1 2 3 4 5 6 7 8 9 10 11 12 13 14 15 16 17 18
962
FTUS41 KPBZ 212322
TAFMGW
TAF
KMGW 212322Z 2200/2224 20003KT P6SM OVC150
     FM220700 19003KT P6SM VCSH OVC060
     FM221600 21005KT P6SM BKN050=

USA.gov is the U.S. government's official web portal to all federal, state and local government web resources and services.